SWA2189 KSAN-KMSY
Flight info
| Callsign | SWA2189 |
|---|---|
| Flight time | N/A |
| Altitude | 35000 |
| Route | ZZOOO4 TGOLD PXR ONM CNX DUMPS HNKER CVE AEX LSU AWDAD1 |
| Aircraft | B738/M-SDE2E3FGHIRWXY/LB1 |
Departure
| Time | N/A |
|---|---|
| Airport | San Diego International Airport (KSAN) |
Arrival
| Time | 2026-05-04 22:41 |
|---|---|
| Airport | Louis Armstrong New Orleans International Airport (KMSY) |
| Time | Latitude | Longitude | Altitude | Speed | Heading |
|---|---|---|---|---|---|
| 2026-05-04 22:25 | 30.97169 | -92.05075 | 29062 ft | 534 kts | 127° |
| 2026-05-04 22:25 | 30.94958 | -92.01609 | 28540 ft | 532 kts | 127° |
| 2026-05-04 22:25 | 30.93496 | -91.99318 | 28202 ft | 532 kts | 127° |
| 2026-05-04 22:26 | 30.91288 | -91.95860 | 27689 ft | 532 kts | 127° |
| 2026-05-04 22:26 | 30.89083 | -91.92410 | 27183 ft | 530 kts | 127° |
| 2026-05-04 22:26 | 30.86885 | -91.88972 | 26699 ft | 529 kts | 127° |
| 2026-05-04 22:26 | 30.84691 | -91.85543 | 26217 ft | 528 kts | 127° |
| 2026-05-04 22:27 | 30.82490 | -91.82108 | 25747 ft | 529 kts | 127° |
| 2026-05-04 22:27 | 30.80306 | -91.78701 | 25267 ft | 522 kts | 127° |
| 2026-05-04 22:27 | 30.78150 | -91.75340 | 24803 ft | 515 kts | 127° |
| 2026-05-04 22:27 | 30.76018 | -91.72020 | 24346 ft | 510 kts | 127° |
| 2026-05-04 22:28 | 30.73907 | -91.68735 | 23897 ft | 504 kts | 127° |
| 2026-05-04 22:28 | 30.71846 | -91.65531 | 23435 ft | 499 kts | 127° |
| 2026-05-04 22:28 | 30.69773 | -91.62310 | 23068 ft | 496 kts | 127° |
| 2026-05-04 22:28 | 30.67706 | -91.59102 | 23022 ft | 497 kts | 127° |
| 2026-05-04 22:29 | 30.65635 | -91.55889 | 23006 ft | 496 kts | 127° |
| 2026-05-04 22:29 | 30.63571 | -91.52689 | 23002 ft | 495 kts | 127° |
| 2026-05-04 22:29 | 30.61503 | -91.49487 | 23005 ft | 495 kts | 127° |
| 2026-05-04 22:29 | 30.59436 | -91.46288 | 23012 ft | 495 kts | 127° |
| 2026-05-04 22:30 | 30.57368 | -91.43090 | 23010 ft | 496 kts | 127° |
| 2026-05-04 22:30 | 30.55296 | -91.39888 | 23013 ft | 496 kts | 127° |
| 2026-05-04 22:30 | 30.53255 | -91.36735 | 23031 ft | 496 kts | 127° |
| 2026-05-04 22:30 | 30.51184 | -91.33540 | 23024 ft | 496 kts | 127° |
| 2026-05-04 22:31 | 30.49104 | -91.30344 | 23025 ft | 496 kts | 129° |
| 2026-05-04 22:31 | 30.46719 | -91.27482 | 23023 ft | 493 kts | 143° |
| 2026-05-04 22:31 | 30.44030 | -91.25023 | 23035 ft | 493 kts | 144° |
| 2026-05-04 22:31 | 30.41320 | -91.22591 | 23030 ft | 493 kts | 144° |
| 2026-05-04 22:32 | 30.38613 | -91.20150 | 23028 ft | 494 kts | 144° |
| 2026-05-04 22:32 | 30.35948 | -91.17720 | 23023 ft | 494 kts | 144° |
| 2026-05-04 22:32 | 30.33262 | -91.15243 | 23030 ft | 494 kts | 143° |
| 2026-05-04 22:32 | 30.30580 | -91.12756 | 23036 ft | 495 kts | 143° |
| 2026-05-04 22:33 | 30.27895 | -91.10260 | 23032 ft | 495 kts | 143° |
| 2026-05-04 22:33 | 30.25212 | -91.07766 | 23033 ft | 495 kts | 143° |
| 2026-05-04 22:33 | 30.22528 | -91.05274 | 23027 ft | 495 kts | 143° |
| 2026-05-04 22:33 | 30.19831 | -91.02776 | 22505 ft | 494 kts | 143° |
| 2026-05-04 22:34 | 30.17197 | -91.00337 | 21978 ft | 476 kts | 143° |
| 2026-05-04 22:34 | 30.14677 | -90.97957 | 21457 ft | 461 kts | 138° |
| 2026-05-04 22:34 | 30.12732 | -90.95152 | 20950 ft | 449 kts | 120° |
| 2026-05-04 22:34 | 30.11492 | -90.91915 | 20458 ft | 434 kts | 104° |
| 2026-05-04 22:35 | 30.10986 | -90.88551 | 19995 ft | 419 kts | 93° |
| 2026-05-04 22:35 | 30.10752 | -90.85238 | 19521 ft | 409 kts | 91° |
| 2026-05-04 22:35 | 30.10551 | -90.82007 | 19047 ft | 399 kts | 91° |
| 2026-05-04 22:35 | 30.10340 | -90.78841 | 18590 ft | 391 kts | 92° |
| 2026-05-04 22:36 | 30.10108 | -90.75740 | 18103 ft | 384 kts | 93° |
| 2026-05-04 22:36 | 30.09867 | -90.72703 | 17579 ft | 377 kts | 93° |
| 2026-05-04 22:36 | 30.09609 | -90.69721 | 17062 ft | 370 kts | 96° |
| 2026-05-04 22:36 | 30.09077 | -90.66871 | 16562 ft | 366 kts | 104° |
| 2026-05-04 22:37 | 30.08366 | -90.64075 | 16064 ft | 360 kts | 106° |
| 2026-05-04 22:37 | 30.07639 | -90.61325 | 15572 ft | 355 kts | 105° |
| 2026-05-04 22:37 | 30.06951 | -90.58605 | 15106 ft | 351 kts | 105° |
| 2026-05-04 22:37 | 30.06297 | -90.55912 | 14622 ft | 346 kts | 104° |
| 2026-05-04 22:38 | 30.05661 | -90.53251 | 14153 ft | 342 kts | 104° |
| 2026-05-04 22:38 | 30.05036 | -90.50617 | 13671 ft | 338 kts | 104° |
| 2026-05-04 22:38 | 30.04417 | -90.48016 | 13160 ft | 334 kts | 104° |
| 2026-05-04 22:38 | 30.03802 | -90.45438 | 12647 ft | 331 kts | 104° |
| 2026-05-04 22:39 | 30.03194 | -90.42893 | 12147 ft | 327 kts | 104° |
| 2026-05-04 22:39 | 30.02672 | -90.40619 | 9634 ft | 178 kts | 88° |
| 2026-05-04 22:39 | 30.02256 | -90.38482 | 3501 ft | 398 kts | 105° |
| 2026-05-04 22:39 | 30.01533 | -90.35584 | 1889 ft | 357 kts | 107° |
| 2026-05-04 22:40 | 30.00845 | -90.33086 | 918 ft | 295 kts | 108° |
| 2026-05-04 22:40 | 30.00335 | -90.30971 | 525 ft | 250 kts | 106° |
| 2026-05-04 22:40 | 29.99930 | -90.29205 | 266 ft | 204 kts | 109° |
| 2026-05-04 22:40 | 29.99569 | -90.27761 | 17 ft | 171 kts | 110° |
| 2026-05-04 22:41 | 29.99299 | -90.26666 | 10 ft | 86 kts | 110° |
| 2026-05-04 22:41 | 29.99196 | -90.26499 | 7 ft | 14 kts | 186° |
| 2026-05-04 22:41 | 29.99125 | -90.26511 | 7 ft | 9 kts | 157° |
| 2026-05-04 22:41 | 29.99100 | -90.26452 | 6 ft | 9 kts | 72° |
| 2026-05-04 22:42 | 29.99115 | -90.26385 | 6 ft | 9 kts | 112° |
| 2026-05-04 22:42 | 29.99087 | -90.26306 | 5 ft | 12 kts | 107° |
| 2026-05-04 22:42 | 29.99064 | -90.26210 | 6 ft | 13 kts | 105° |
| 2026-05-04 22:42 | 29.99039 | -90.26108 | 7 ft | 14 kts | 106° |
| 2026-05-04 22:43 | 29.99050 | -90.26003 | 7 ft | 13 kts | 71° |
| 2026-05-04 22:43 | 29.99090 | -90.25911 | 8 ft | 13 kts | 62° |
| 2026-05-04 22:43 | 29.99097 | -90.25812 | 6 ft | 12 kts | 97° |
| 2026-05-04 22:43 | 29.99075 | -90.25717 | 6 ft | 12 kts | 107° |
| 2026-05-04 22:44 | 29.99111 | -90.25641 | 6 ft | 12 kts | 22° |
| 2026-05-04 22:44 | 29.99191 | -90.25612 | 4 ft | 12 kts | 38° |
| 2026-05-04 22:44 | 29.99242 | -90.25540 | 6 ft | 12 kts | 35° |
| 2026-05-04 22:44 | 29.99316 | -90.25509 | 5 ft | 11 kts | 1° |
| 2026-05-04 22:45 | 29.99373 | -90.25500 | 5 ft | 6 kts | 36° |
| 2026-05-04 22:45 | 29.99380 | -90.25436 | 6 ft | 0 kts | 90° |
| 2026-05-04 22:45 | 29.99379 | -90.25430 | 6 ft | 1 kts | 94° |